createdAt,value
2019-05-18T00:01:09.740Z,13.70
2019-05-18T00:06:15.294Z,13.90
2019-05-18T00:11:20.776Z,13.70
2019-05-18T00:16:26.281Z,13.60
2019-05-18T00:21:31.763Z,13.60
2019-05-18T00:26:37.205Z,13.70
2019-05-18T00:31:42.679Z,13.60
2019-05-18T00:36:52.175Z,13.60
2019-05-18T00:41:57.804Z,13.70
2019-05-18T00:47:03.958Z,13.60
2019-05-18T00:52:12.855Z,13.70
2019-05-18T00:57:18.964Z,13.80
2019-05-18T01:02:27.847Z,13.60
2019-05-18T01:07:33.248Z,13.60
2019-05-18T01:12:38.877Z,13.70
2019-05-18T01:17:56.465Z,13.70
2019-05-18T01:22:51.391Z,13.70
2019-05-18T01:27:56.906Z,13.80
2019-05-18T01:33:02.434Z,13.70
2019-05-18T01:38:08.518Z,13.60
2019-05-18T01:43:14.093Z,13.60
2019-05-18T01:48:19.476Z,13.60
2019-05-18T01:53:24.926Z,13.90
2019-05-18T01:58:30.338Z,13.90
2019-05-18T02:03:35.831Z,13.90
2019-05-18T02:08:41.277Z,13.80
2019-05-18T02:13:46.682Z,13.70
2019-05-18T02:18:52.307Z,13.90
2019-05-18T02:23:57.926Z,13.80
2019-05-18T02:29:03.570Z,13.90
2019-05-18T02:34:08.947Z,14.00
2019-05-18T02:39:14.464Z,14.10
2019-05-18T02:44:19.896Z,14.20
2019-05-18T02:49:25.354Z,14.20
2019-05-18T02:54:30.754Z,14.20
2019-05-18T02:59:36.196Z,14.00
2019-05-18T03:04:42.035Z,13.90
2019-05-18T03:09:47.363Z,13.80
2019-05-18T03:14:52.967Z,13.80
2019-05-18T03:19:58.351Z,13.80
2019-05-18T03:25:03.947Z,13.80
2019-05-18T03:30:10.425Z,13.80
2019-05-18T03:35:16.776Z,13.80
2019-05-18T03:40:22.197Z,13.80
2019-05-18T03:45:27.594Z,13.90
2019-05-18T03:50:33.021Z,13.80
2019-05-18T03:55:38.400Z,13.70
2019-05-18T04:00:44.385Z,13.70
2019-05-18T04:05:49.858Z,13.70
2019-05-18T04:10:55.640Z,13.60
2019-05-18T04:16:01.082Z,13.60
2019-05-18T04:21:09.088Z,13.60
2019-05-18T04:26:14.487Z,13.60
2019-05-18T04:31:19.979Z,13.50
2019-05-18T04:36:25.369Z,13.50
2019-05-18T04:41:30.831Z,13.40
2019-05-18T04:46:36.271Z,13.40
2019-05-18T04:51:41.948Z,13.30
2019-05-18T04:56:47.498Z,13.40
2019-05-18T05:01:52.897Z,13.40
2019-05-18T05:06:59.140Z,13.40
2019-05-18T05:12:04.630Z,13.40
2019-05-18T05:17:10.225Z,13.40
2019-05-18T05:22:16.539Z,13.60
2019-05-18T05:27:21.921Z,13.50
2019-05-18T05:32:27.299Z,13.50
2019-05-18T05:37:32.733Z,13.50
2019-05-18T05:42:38.456Z,13.70
2019-05-18T05:47:43.907Z,13.60
2019-05-18T05:52:49.465Z,13.60
2019-05-18T05:57:54.938Z,13.60
2019-05-18T06:03:00.404Z,13.70
2019-05-18T06:08:06.084Z,13.90
2019-05-18T06:13:11.584Z,14.00
2019-05-18T06:18:17.089Z,14.10
2019-05-18T06:23:22.443Z,14.20
2019-05-18T06:28:27.872Z,14.40
2019-05-18T06:33:33.308Z,14.80
2019-05-18T06:38:38.804Z,14.80
2019-05-18T06:43:44.211Z,14.90
2019-05-18T06:48:49.681Z,15.00
2019-05-18T06:53:55.361Z,14.90
2019-05-18T06:59:02.204Z,14.80
2019-05-18T07:04:07.711Z,14.80
2019-05-18T07:09:14.432Z,14.70
2019-05-18T07:14:25.688Z,14.70
2019-05-18T07:19:27.455Z,14.80
2019-05-18T07:24:32.947Z,15.20
2019-05-18T07:29:38.385Z,15.70
2019-05-18T07:34:43.883Z,16.00
2019-05-18T07:39:49.707Z,16.50
2019-05-18T07:44:55.294Z,17.20
2019-05-18T07:50:00.973Z,17.10
2019-05-18T07:55:07.154Z,16.60
2019-05-18T08:00:14.859Z,16.50
2019-05-18T08:05:20.676Z,16.70
2019-05-18T08:10:44.524Z,16.80
2019-05-18T08:15:50.247Z,16.80
2019-05-18T08:20:58.482Z,16.90
2019-05-18T08:26:04.321Z,16.90
2019-05-18T08:31:09.758Z,16.90
2019-05-18T08:36:15.273Z,16.90
2019-05-18T08:41:21.024Z,17.10
2019-05-18T08:46:26.580Z,17.00
2019-05-18T08:51:32.377Z,17.10
2019-05-18T08:56:38.134Z,17.30
2019-05-18T09:01:43.819Z,17.10
2019-05-18T09:06:49.370Z,17.20
2019-05-18T09:11:54.914Z,17.30
2019-05-18T09:17:00.337Z,17.50
2019-05-18T09:22:05.888Z,17.50
2019-05-18T09:27:11.297Z,17.80
2019-05-18T09:32:16.697Z,17.80
2019-05-18T09:37:22.108Z,18.00
2019-05-18T09:42:27.638Z,18.30
2019-05-18T09:47:33.264Z,18.40
2019-05-18T09:52:46.628Z,18.50
2019-05-18T09:57:46.211Z,18.40
2019-05-18T10:02:51.795Z,19.10
2019-05-18T10:07:57.319Z,19.60
2019-05-18T10:13:02.871Z,19.30
2019-05-18T10:18:08.336Z,18.70
2019-05-18T10:23:14.075Z,18.80
2019-05-18T10:28:20.143Z,19.30
2019-05-18T10:33:25.874Z,19.50
2019-05-18T10:38:31.445Z,19.70
2019-05-18T10:43:36.934Z,20.00
2019-05-18T10:48:42.385Z,20.40
2019-05-18T10:53:47.931Z,20.00
2019-05-18T10:58:53.428Z,20.00
2019-05-18T11:03:58.869Z,19.40
2019-05-18T11:09:06.201Z,19.60
2019-05-18T11:14:11.748Z,19.20
2019-05-18T11:19:17.344Z,20.70
2019-05-18T11:24:22.941Z,21.60
2019-05-18T11:29:28.377Z,22.00
2019-05-18T11:34:33.818Z,21.00
2019-05-18T11:39:39.423Z,21.00
2019-05-18T11:44:45.068Z,21.50
2019-05-18T11:49:50.714Z,21.70
2019-05-18T11:54:57.421Z,21.60
2019-05-18T12:00:03.068Z,21.20
2019-05-18T12:05:09.064Z,20.20
2019-05-18T12:10:17.849Z,19.90
2019-05-18T12:15:22.463Z,19.70
2019-05-18T12:20:27.955Z,19.20
2019-05-18T12:25:33.577Z,18.80
2019-05-18T12:30:39.231Z,19.00
2019-05-18T12:35:44.639Z,19.30
2019-05-18T12:40:50.109Z,19.80
2019-05-18T12:45:55.561Z,21.50
2019-05-18T12:51:00.980Z,23.10
2019-05-18T12:56:06.586Z,23.10
2019-05-18T13:01:12.235Z,24.20
2019-05-18T13:06:17.703Z,21.90
2019-05-18T13:11:23.296Z,20.90
2019-05-18T13:16:28.783Z,20.10
2019-05-18T13:21:34.265Z,19.80
2019-05-18T13:26:39.663Z,21.30
2019-05-18T13:31:45.119Z,22.50
2019-05-18T13:36:50.588Z,24.10
2019-05-18T13:41:56.027Z,23.80
2019-05-18T13:47:01.502Z,23.10
2019-05-18T13:52:06.987Z,22.40
2019-05-18T13:57:13.311Z,22.30
2019-05-18T14:02:18.754Z,21.70
2019-05-18T14:07:24.956Z,21.30
2019-05-18T14:12:30.396Z,21.70
2019-05-18T14:17:36.504Z,23.60
2019-05-18T14:22:44.648Z,24.90
2019-05-18T14:27:52.536Z,25.10
2019-05-18T14:32:57.912Z,25.80
2019-05-18T14:38:03.451Z,26.10
2019-05-18T14:43:09.108Z,26.10
2019-05-18T14:48:15.215Z,25.50
2019-05-18T14:53:20.777Z,25.40
2019-05-18T14:58:26.203Z,26.40
2019-05-18T15:03:32.211Z,25.40
2019-05-18T15:08:38.942Z,25.10
2019-05-18T15:13:44.394Z,25.30
2019-05-18T15:18:49.981Z,21.80
2019-05-18T15:23:55.412Z,20.40
2019-05-18T15:29:01.284Z,19.60
2019-05-18T15:34:06.756Z,19.40
2019-05-18T15:39:12.505Z,19.10
2019-05-18T15:44:19.791Z,19.10
2019-05-18T15:49:25.200Z,19.40
2019-05-18T15:54:30.829Z,19.10
2019-05-18T15:59:36.238Z,18.80
2019-05-18T16:04:41.653Z,18.70
2019-05-18T16:09:47.502Z,18.50
2019-05-18T16:14:53.389Z,18.20
2019-05-18T16:19:59.367Z,18.30
2019-05-18T16:25:05.728Z,18.20
2019-05-18T16:30:13.044Z,18.10
2019-05-18T16:35:19.432Z,18.90
2019-05-18T16:40:25.163Z,21.10
2019-05-18T16:45:31.045Z,19.30
2019-05-18T16:50:36.461Z,18.70
2019-05-18T16:55:41.863Z,18.10
2019-05-18T17:00:50.101Z,18.10
2019-05-18T17:05:55.016Z,17.90
2019-05-18T17:11:01.031Z,19.30
2019-05-18T17:16:06.485Z,19.90
2019-05-18T17:21:12.242Z,18.90
2019-05-18T17:26:18.171Z,18.20
2019-05-18T17:31:23.987Z,17.60
2019-05-18T17:36:29.699Z,17.40
2019-05-18T17:41:35.300Z,17.20
2019-05-18T17:46:43.756Z,17.30
2019-05-18T17:51:49.153Z,17.00
2019-05-18T17:57:07.477Z,16.80
2019-05-18T18:02:02.199Z,16.90
2019-05-18T18:07:09.311Z,16.90
2019-05-18T18:12:14.992Z,16.90
2019-05-18T18:17:20.414Z,16.70
2019-05-18T18:22:26.207Z,16.80
2019-05-18T18:27:31.779Z,16.90
2019-05-18T18:32:37.521Z,16.90
2019-05-18T18:37:43.329Z,16.80
2019-05-18T18:42:48.961Z,16.60
2019-05-18T18:47:54.858Z,16.60
2019-05-18T18:53:06.327Z,16.60
2019-05-18T18:58:12.973Z,16.60
2019-05-18T19:03:18.619Z,16.50
2019-05-18T19:08:24.087Z,16.30
2019-05-18T19:13:29.865Z,16.00
2019-05-18T19:18:35.828Z,15.90
2019-05-18T19:23:41.740Z,15.80
2019-05-18T19:28:47.172Z,15.80
2019-05-18T19:33:53.047Z,15.90
2019-05-18T19:38:58.502Z,15.80
2019-05-18T19:44:04.371Z,15.60
2019-05-18T19:49:10.112Z,15.60
2019-05-18T19:54:15.922Z,15.70
2019-05-18T19:59:21.567Z,15.80
2019-05-18T20:04:27.551Z,15.80
2019-05-18T20:09:33.300Z,15.80
2019-05-18T20:14:38.999Z,15.70
2019-05-18T20:19:44.718Z,15.80
2019-05-18T20:24:50.493Z,15.70
2019-05-18T20:29:56.586Z,15.80
2019-05-18T20:35:07.433Z,15.80
2019-05-18T20:40:14.100Z,15.80
2019-05-18T20:45:20.016Z,15.80
2019-05-18T20:50:25.679Z,15.90
2019-05-18T20:55:31.147Z,15.90
2019-05-18T21:00:38.523Z,15.60
2019-05-18T21:05:43.643Z,15.30
2019-05-18T21:10:49.163Z,15.00
2019-05-18T21:15:54.873Z,14.90
2019-05-18T21:21:00.499Z,14.30
2019-05-18T21:26:06.008Z,13.90
2019-05-18T21:31:11.427Z,13.60
2019-05-18T21:36:16.985Z,13.50
2019-05-18T21:41:22.585Z,13.30
2019-05-18T21:46:28.161Z,13.40
2019-05-18T21:51:33.544Z,13.40
2019-05-18T21:56:39.369Z,13.30
2019-05-18T22:01:44.955Z,13.20
2019-05-18T22:06:50.411Z,13.00
2019-05-18T22:11:55.996Z,13.20
2019-05-18T22:17:01.526Z,13.20
2019-05-18T22:22:07.091Z,13.10
2019-05-18T22:27:15.218Z,13.10
2019-05-18T22:32:20.743Z,13.00
2019-05-18T22:37:26.203Z,12.90
2019-05-18T22:42:31.802Z,12.60
2019-05-18T22:47:38.603Z,12.60
2019-05-18T22:52:44.275Z,12.80
2019-05-18T22:57:49.917Z,12.70
2019-05-18T23:02:55.927Z,12.70
2019-05-18T23:08:01.810Z,12.60
2019-05-18T23:13:07.605Z,12.60
2019-05-18T23:18:13.274Z,12.60
2019-05-18T23:23:18.996Z,12.50
2019-05-18T23:28:26.164Z,12.40
2019-05-18T23:33:32.030Z,12.20
2019-05-18T23:38:37.795Z,12.30
2019-05-18T23:43:43.506Z,12.30
2019-05-18T23:48:49.778Z,12.20
2019-05-18T23:53:55.556Z,12.10
2019-05-18T23:59:01.259Z,12.10
